Vlieland Island, Netherlands
Current Conditions -  °F | °C
As of 1:55 AM on Thursday 23 Oct 2014 (Local Time) from EHVL Reporting Station
Haze Haze  
Wind Chill: 54°   Ceiling: 2300
Heat Index: 54°   Visibility: 4mi
Dew Point: 52°   Wind: 10mph
Humidity: 94%   Direction: 220°SW
Pressure: 30.12"   Gusts: NA
Location:  53.25°N, 4.92°E
Report Text: EHVL 222355Z AUTO 22009KT 7000 BR FEW016 SCT020 BKN023 12/11 Q1020 REDZ WHT RMK TS INFO NOT AVBL
Loading
Personal Weather Stations






























Interactive Weather Map
Tropical Storm Tracking
New forecast layout! Learn more

10-Day Weather Forecast

Advertisements
Track Severe Weather on mobile